Time;durP1;ratioP1;P1;durP2;ratioP2;P2;SDS_P1;SDS_P2;PMS_P1;PMS_P2;Temp;Humidity;BMP_temperature;BMP_pressure;BME280_temperature;BME280_humidity;BME280_pressure;Samples;Min_cycle;Max_cycle;Signal;HPM_P1;HPM_P2
2023/09/24 00:14:17;;;;;;;6.90;5.17;;;15.90;99.90;;;;;;4548270;19;19998;31
2023/09/24 00:15:53;;;;;;;8.27;5.85;;;15.90;99.90;;;;;;4593719;19;20014;-71
2023/09/24 00:17:26;;;;;;;8.43;5.82;;;15.90;99.90;;;;;;4593782;19;20006;-70
2023/09/24 00:19:02;;;;;;;6.65;4.97;;;15.90;99.90;;;;;;4595052;19;20010;-72
2023/09/24 00:20:39;;;;;;;5.38;4.57;;;15.90;99.90;;;;;;4595766;19;20449;-72
2023/09/24 00:22:13;;;;;;;6.15;5.00;;;15.90;99.90;;;;;;4595649;19;20299;-73
2023/09/24 00:23:48;;;;;;;6.00;5.28;;;15.90;99.90;;;;;;4593442;19;20026;-73
2023/09/24 00:25:24;;;;;;;5.88;4.45;;;15.90;99.90;;;;;;4593720;19;20037;-73
2023/09/24 00:26:58;;;;;;;5.78;4.30;;;15.90;99.90;;;;;;4594227;19;20460;-72
2023/09/24 00:28:32;;;;;;;6.18;4.90;;;15.90;99.90;;;;;;4594875;19;20002;-72
2023/09/24 00:30:09;;;;;;;5.43;4.18;;;16.00;99.90;;;;;;4595213;19;20346;-72
2023/09/24 00:31:43;;;;;;;4.90;4.00;;;15.90;99.90;;;;;;4595300;19;20003;-72
2023/09/24 00:33:18;;;;;;;5.70;4.03;;;15.90;99.90;;;;;;4595146;19;20025;-72
2023/09/24 00:34:56;;;;;;;4.88;4.38;;;15.90;99.90;;;;;;4594569;19;20006;-72
2023/09/24 00:36:30;;;;;;;4.65;4.00;;;15.90;99.90;;;;;;4594230;19;20011;-72
2023/09/24 00:38:04;;;;;;;4.30;3.85;;;15.90;99.90;;;;;;4594714;19;20426;-72
2023/09/24 00:39:39;;;;;;;6.20;4.35;;;15.90;99.90;;;;;;4595337;19;20074;-72
2023/09/24 00:41:14;;;;;;;4.95;4.45;;;15.90;99.90;;;;;;4595236;19;20021;-72
2023/09/24 00:42:50;;;;;;;5.43;4.47;;;15.90;99.90;;;;;;4595204;19;20347;-72
2023/09/24 00:44:25;;;;;;;4.57;3.72;;;15.90;99.90;;;;;;4594726;19;20013;-72
2023/09/24 00:46:03;;;;;;;4.70;4.10;;;15.90;99.90;;;;;;4595142;19;20003;-72
2023/09/24 00:47:39;;;;;;;5.53;4.30;;;15.90;99.90;;;;;;4593618;19;20023;-72
2023/09/24 00:49:15;;;;;;;4.72;3.67;;;15.90;99.90;;;;;;4594883;19;20029;-72
2023/09/24 00:50:48;;;;;;;5.50;4.28;;;15.90;99.90;;;;;;4594814;19;20002;-72
2023/09/24 00:52:24;;;;;;;5.53;4.30;;;15.90;99.90;;;;;;4594761;19;19998;-72
2023/09/24 00:53:59;;;;;;;5.53;4.25;;;15.90;99.90;;;;;;4593723;19;20302;-72
2023/09/24 00:55:34;;;;;;;5.07;4.32;;;15.90;99.90;;;;;;4592882;19;20449;-72
2023/09/24 00:57:10;;;;;;;5.25;4.05;;;15.90;99.90;;;;;;4594671;19;20009;-72
2023/09/24 00:58:52;;;;;;;4.90;4.07;;;15.90;99.90;;;;;;4593344;19;20006;-72
2023/09/24 01:00:30;;;;;;;4.85;4.10;;;15.90;99.90;;;;;;4594375;19;20010;-72
2023/09/24 01:02:04;;;;;;;5.65;4.55;;;15.90;99.90;;;;;;4594895;19;20429;-72
2023/09/24 01:03:40;;;;;;;5.93;4.43;;;15.90;99.90;;;;;;4594460;19;20081;-72
2023/09/24 01:05:15;;;;;;;4.63;4.13;;;15.90;99.90;;;;;;4592133;19;20010;-72
2023/09/24 01:06:49;;;;;;;5.15;4.30;;;15.90;99.90;;;;;;4594094;19;20010;-72
2023/09/24 01:08:25;;;;;;;6.00;4.70;;;15.90;99.90;;;;;;4594416;19;20007;-72
2023/09/24 01:09:59;;;;;;;6.22;4.75;;;15.80;99.90;;;;;;4594351;19;20313;-72
2023/09/24 01:11:33;;;;;;;5.90;4.75;;;15.80;99.90;;;;;;4594207;19;20003;-72
2023/09/24 01:13:08;;;;;;;6.55;5.15;;;15.80;99.90;;;;;;4593349;19;20278;-72
2023/09/24 01:14:42;;;;;;;7.95;5.88;;;15.80;99.90;;;;;;4591976;19;20003;-72
2023/09/24 01:16:16;;;;;;;10.57;8.05;;;15.90;99.90;;;;;;4593972;19;20029;-71
2023/09/24 01:17:52;;;;;;;8.63;7.15;;;15.90;99.90;;;;;;4594562;19;20397;-72
2023/09/24 01:19:27;;;;;;;9.48;6.97;;;15.90;99.90;;;;;;4594236;19;20093;-72
2023/09/24 01:21:03;;;;;;;9.13;6.63;;;15.90;99.90;;;;;;4594093;19;20051;-72
2023/09/24 01:22:38;;;;;;;8.10;6.50;;;15.90;99.90;;;;;;4594476;19;20417;-72
2023/09/24 01:24:12;;;;;;;7.72;6.03;;;15.90;99.90;;;;;;4594321;19;20021;-72
2023/09/24 01:25:46;;;;;;;6.22;4.90;;;15.90;99.90;;;;;;4594380;19;20446;-72
2023/09/24 01:27:22;;;;;;;6.40;4.72;;;15.90;99.90;;;;;;4594344;19;20010;-72
2023/09/24 01:28:57;;;;;;;4.85;4.35;;;15.90;99.90;;;;;;4594253;19;20006;-72
2023/09/24 01:30:31;;;;;;;5.25;4.55;;;15.80;99.90;;;;;;4592902;19;20009;-72
2023/09/24 01:32:07;;;;;;;4.75;4.10;;;15.80;99.90;;;;;;4593746;19;20007;-72
2023/09/24 01:33:41;;;;;;;5.40;4.30;;;15.80;99.90;;;;;;4593925;19;20010;-72
2023/09/24 01:35:17;;;;;;;5.30;4.63;;;15.90;99.90;;;;;;4590957;19;20017;-72
2023/09/24 01:36:53;;;;;;;5.38;4.50;;;15.80;99.90;;;;;;4594126;19;20446;-72
2023/09/24 01:38:27;;;;;;;5.40;4.07;;;15.80;99.90;;;;;;4594310;19;20006;-72
2023/09/24 01:40:19;;;;;;;5.28;4.25;;;15.80;99.90;;;;;;4592362;19;20437;-72
2023/09/24 01:41:54;;;;;;;5.35;4.20;;;15.80;99.90;;;;;;4592489;19;20014;-72
2023/09/24 01:43:28;;;;;;;5.05;4.10;;;15.80;99.90;;;;;;4593799;19;19995;-72
2023/09/24 01:45:03;;;;;;;5.25;4.07;;;15.80;99.90;;;;;;4592878;19;20010;-72
2023/09/24 01:46:38;;;;;;;5.97;4.53;;;15.70;99.90;;;;;;4593674;19;20434;-72
2023/09/24 01:48:12;;;;;;;6.85;5.68;;;15.70;99.90;;;;;;4593881;19;20002;-72
2023/09/24 01:49:49;;;;;;;9.10;6.53;;;15.70;99.90;;;;;;4593558;19;20025;-72
2023/09/24 01:51:25;;;;;;;8.27;6.95;;;15.70;99.90;;;;;;4593671;19;20032;-72
2023/09/24 01:53:00;;;;;;;8.48;6.40;;;15.70;99.90;;;;;;4593506;19;20002;-72
2023/09/24 01:54:34;;;;;;;7.93;6.53;;;15.70;99.90;;;;;;4593292;19;20049;-72
2023/09/24 01:56:10;;;;;;;8.88;6.95;;;15.70;99.90;;;;;;4593440;19;20006;-72
2023/09/24 01:57:44;;;;;;;7.43;5.93;;;15.70;99.90;;;;;;4592112;19;20003;-72
2023/09/24 01:59:18;;;;;;;6.72;5.40;;;15.70;99.90;;;;;;4592974;19;20002;-72
2023/09/24 02:00:53;;;;;;;6.03;5.40;;;15.60;99.90;;;;;;4593363;19;19998;-72
2023/09/24 02:02:27;;;;;;;6.80;5.82;;;15.70;99.90;;;;;;4593292;19;20021;-72
2023/09/24 02:04:01;;;;;;;6.90;5.82;;;15.60;99.90;;;;;;4593574;19;20003;-72
2023/09/24 02:05:42;;;;;;;5.90;4.43;;;15.70;99.90;;;;;;4592189;19;20025;-72
2023/09/24 02:07:16;;;;;;;6.10;4.95;;;15.60;99.90;;;;;;4593596;19;20006;-72
2023/09/24 02:08:50;;;;;;;5.47;4.50;;;15.60;99.90;;;;;;4593141;19;19999;-72
2023/09/24 02:10:25;;;;;;;6.15;4.88;;;15.60;99.90;;;;;;4593439;19;19998;-73
2023/09/24 02:11:59;;;;;;;5.32;4.60;;;15.60;99.90;;;;;;4593353;19;20364;-72
2023/09/24 02:13:33;;;;;;;5.80;4.78;;;15.60;99.90;;;;;;4593437;19;20025;-73
2023/09/24 02:15:23;;;;;;;6.07;5.00;;;15.60;99.90;;;;;;4590548;19;20090;-72
2023/09/24 02:17:00;;;;;;;6.25;5.18;;;15.60;99.90;;;;;;4593238;19;20014;-72
2023/09/24 02:18:36;;;;;;;6.55;5.85;;;15.60;99.90;;;;;;4592984;19;20003;-72
2023/09/24 02:20:25;;;;;;;6.10;5.32;;;15.60;99.90;;;;;;4592912;19;20007;-73
2023/09/24 02:22:00;;;;;;;6.63;4.95;;;15.50;99.90;;;;;;4593017;19;20022;-72
2023/09/24 02:23:34;;;;;;;6.75;5.72;;;15.50;99.90;;;;;;4593216;19;20448;-72
2023/09/24 02:25:10;;;;;;;7.35;5.65;;;15.50;99.90;;;;;;4592151;19;20074;-72
2023/09/24 02:26:44;;;;;;;6.65;5.00;;;15.50;99.90;;;;;;4593148;19;20425;-72
2023/09/24 02:28:18;;;;;;;5.57;4.80;;;15.50;99.90;;;;;;4592746;19;20331;-71
2023/09/24 02:29:54;;;;;;;5.60;4.70;;;15.40;99.90;;;;;;4591559;19;20011;-72
2023/09/24 02:31:30;;;;;;;6.38;5.35;;;15.40;99.90;;;;;;4592333;19;20014;-72
2023/09/24 02:33:04;;;;;;;5.60;5.00;;;15.40;99.90;;;;;;4592861;19;19999;-72
2023/09/24 02:34:40;;;;;;;6.22;5.00;;;15.40;99.90;;;;;;4592884;19;20002;-72
2023/09/24 02:36:13;;;;;;;5.72;4.85;;;15.40;99.90;;;;;;4592648;19;20003;-72
2023/09/24 02:37:50;;;;;;;6.00;4.85;;;15.40;99.90;;;;;;4592594;19;20002;-72
2023/09/24 02:39:26;;;;;;;6.25;5.32;;;15.40;99.90;;;;;;4591264;19;20017;-72
2023/09/24 02:41:00;;;;;;;6.10;4.68;;;15.40;99.90;;;;;;4592507;19;19998;-72
2023/09/24 02:42:35;;;;;;;6.15;5.45;;;15.30;99.90;;;;;;4592812;19;20418;-72
2023/09/24 02:44:10;;;;;;;5.97;4.80;;;15.30;99.90;;;;;;4592541;19;20007;-71
2023/09/24 02:45:44;;;;;;;6.22;4.75;;;15.40;99.90;;;;;;4592763;19;20003;-72
2023/09/24 02:47:19;;;;;;;5.57;4.60;;;15.30;99.90;;;;;;4590976;19;20066;-72
2023/09/24 02:48:54;;;;;;;7.43;5.07;;;15.30;99.90;;;;;;4592209;19;20071;-72
2023/09/24 02:50:32;;;;;;;6.70;5.03;;;15.30;99.90;;;;;;4592257;19;20017;-72
2023/09/24 02:52:06;;;;;;;5.80;4.75;;;15.30;99.90;;;;;;4591386;19;20007;-72
2023/09/24 02:53:42;;;;;;;5.30;4.60;;;15.30;99.90;;;;;;4592113;19;20002;-72
2023/09/24 02:55:16;;;;;;;5.95;4.75;;;15.20;99.90;;;;;;4591392;19;20444;-72
2023/09/24 02:56:52;;;;;;;6.65;4.90;;;15.20;99.90;;;;;;4592217;19;20006;-72
2023/09/24 02:58:28;;;;;;;5.93;4.38;;;15.20;99.90;;;;;;4592365;19;20002;-72
2023/09/24 03:00:03;;;;;;;5.30;4.45;;;15.20;99.90;;;;;;4592434;19;20003;-72
2023/09/24 03:01:40;;;;;;;5.43;4.57;;;15.20;99.90;;;;;;4592515;19;20006;-72
2023/09/24 03:03:16;;;;;;;5.10;4.57;;;15.20;99.90;;;;;;4592498;19;20007;-72
2023/09/24 03:04:51;;;;;;;5.82;4.90;;;15.20;99.90;;;;;;4591648;19;20023;-72
2023/09/24 03:06:26;;;;;;;4.75;4.22;;;15.20;99.90;;;;;;4592357;19;20021;-72
2023/09/24 03:08:03;;;;;;;4.85;4.35;;;15.30;99.90;;;;;;4592187;19;20024;-72
2023/09/24 03:09:37;;;;;;;4.82;4.07;;;15.30;99.90;;;;;;4590950;19;20005;-72
2023/09/24 03:11:15;;;;;;;5.45;4.35;;;15.30;99.90;;;;;;4591620;19;20073;-72
2023/09/24 03:12:50;;;;;;;5.38;4.25;;;15.20;99.90;;;;;;4592041;19;20007;-72
2023/09/24 03:14:25;;;;;;;6.40;4.75;;;15.30;99.90;;;;;;4590709;19;20331;-72
2023/09/24 03:15:59;;;;;;;5.60;4.93;;;15.30;99.90;;;;;;4590099;19;20015;-72
2023/09/24 03:17:35;;;;;;;5.93;4.75;;;15.30;99.90;;;;;;4592263;19;20007;-72
2023/09/24 03:19:09;;;;;;;4.47;4.07;;;15.20;99.90;;;;;;4590535;19;20014;-72
2023/09/24 03:20:44;;;;;;;4.90;4.40;;;15.30;99.90;;;;;;4590794;19;20002;-72
2023/09/24 03:22:21;;;;;;;5.75;4.82;;;15.20;99.90;;;;;;4591816;19;20391;-72
2023/09/24 03:23:55;;;;;;;6.10;4.80;;;15.20;99.90;;;;;;4592291;19;20445;-72
2023/09/24 03:25:29;;;;;;;5.82;4.65;;;15.20;99.90;;;;;;4590684;19;20007;-72
2023/09/24 03:27:05;;;;;;;5.35;4.55;;;15.20;99.90;;;;;;4591861;19;20014;-72
2023/09/24 03:28:40;;;;;;;7.00;5.70;;;15.20;99.90;;;;;;4590333;19;20433;-72
2023/09/24 03:30:20;;;;;;;6.30;5.20;;;15.20;99.90;;;;;;4590380;19;20310;-72
2023/09/24 03:31:58;;;;;;;6.72;5.93;;;15.20;99.90;;;;;;4590633;19;20029;-72
2023/09/24 03:33:33;;;;;;;7.63;6.65;;;15.20;99.90;;;;;;4591323;19;20003;-72
2023/09/24 03:35:09;;;;;;;7.97;6.53;;;15.20;99.90;;;;;;4590687;19;20327;-72
2023/09/24 03:36:45;;;;;;;8.40;7.55;;;15.10;99.90;;;;;;4591700;19;20003;-72
2023/09/24 03:38:19;;;;;;;7.72;6.93;;;15.20;99.90;;;;;;4592020;19;19998;-72
2023/09/24 03:39:54;;;;;;;7.57;6.50;;;15.20;99.90;;;;;;4591832;19;20334;-72
2023/09/24 03:41:30;;;;;;;7.13;6.35;;;15.20;99.90;;;;;;4590195;19;20007;-72
2023/09/24 03:43:06;;;;;;;8.32;6.47;;;15.20;99.90;;;;;;4590200;19;20082;-72
2023/09/24 03:44:42;;;;;;;7.07;6.35;;;15.20;99.90;;;;;;4590899;19;20010;-71
2023/09/24 03:46:17;;;;;;;6.60;5.93;;;15.20;99.90;;;;;;4591561;19;20021;-72
2023/09/24 03:47:51;;;;;;;7.18;5.90;;;15.10;99.90;;;;;;4591399;19;20024;-72
2023/09/24 03:49:26;;;;;;;7.85;6.47;;;15.10;99.90;;;;;;4590070;19;20006;-72
2023/09/24 03:51:01;;;;;;;6.00;5.40;;;15.10;99.90;;;;;;4589595;19;19998;-72
2023/09/24 03:52:37;;;;;;;6.60;5.75;;;15.10;99.90;;;;;;4590622;19;20006;-72
2023/09/24 03:54:13;;;;;;;5.95;5.05;;;15.10;99.90;;;;;;4590682;19;20013;-72
2023/09/24 03:55:49;;;;;;;5.32;4.82;;;15.10;99.90;;;;;;4589409;19;20029;-72
2023/09/24 03:57:27;;;;;;;6.60;5.20;;;15.10;99.90;;;;;;4590769;19;20009;-72
2023/09/24 03:59:03;;;;;;;5.75;4.85;;;15.10;99.90;;;;;;4594040;19;20030;-72
2023/09/24 04:00:39;;;;;;;6.22;4.88;;;15.10;99.90;;;;;;4595239;19;20006;-72
2023/09/24 04:02:14;;;;;;;5.97;4.75;;;15.10;99.90;;;;;;4595567;19;20003;-72
2023/09/24 04:03:49;;;;;;;5.47;4.93;;;15.10;99.90;;;;;;4595307;19;20026;-72
2023/09/24 04:05:24;;;;;;;6.43;4.50;;;15.00;99.90;;;;;;4593542;19;20010;-72
2023/09/24 04:07:00;;;;;;;6.18;4.57;;;15.00;99.90;;;;;;4594907;19;19999;-72
2023/09/24 04:08:34;;;;;;;5.82;5.18;;;15.00;99.90;;;;;;4594912;19;19998;-72
2023/09/24 04:10:14;;;;;;;5.95;4.70;;;14.90;99.90;;;;;;4594977;19;20006;-72
2023/09/24 04:11:48;;;;;;;5.97;4.53;;;14.90;99.90;;;;;;4593871;19;20086;-72
2023/09/24 04:13:22;;;;;;;5.72;4.65;;;14.90;99.90;;;;;;4594391;19;20034;-72
2023/09/24 04:14:57;;;;;;;5.57;4.72;;;14.90;99.90;;;;;;4593385;19;20278;-72
2023/09/24 04:16:31;;;;;;;6.25;5.38;;;14.90;99.90;;;;;;4595080;19;20003;-72
2023/09/24 04:18:05;;;;;;;7.03;5.80;;;14.90;99.90;;;;;;4595080;19;19999;-72
2023/09/24 04:19:40;;;;;;;7.50;5.68;;;14.90;99.90;;;;;;4595004;19;20002;-72
2023/09/24 04:21:18;;;;;;;6.45;5.38;;;14.90;99.90;;;;;;4595032;19;19998;-72
2023/09/24 04:22:53;;;;;;;6.10;4.95;;;14.80;99.90;;;;;;4594875;19;20003;-72
2023/09/24 04:24:29;;;;;;;6.50;5.32;;;14.90;99.90;;;;;;4594241;19;20077;-72
2023/09/24 04:26:03;;;;;;;6.20;5.45;;;14.90;99.90;;;;;;4594627;19;20074;-72
2023/09/24 04:27:38;;;;;;;6.07;5.40;;;14.80;99.90;;;;;;4594832;19;20003;-72
2023/09/24 04:29:14;;;;;;;7.95;5.72;;;14.80;99.90;;;;;;4594615;19;20007;-72
2023/09/24 04:30:47;;;;;;;6.10;4.95;;;14.80;99.90;;;;;;4593394;19;20326;-72
2023/09/24 04:32:22;;;;;;;6.35;5.28;;;14.80;99.90;;;;;;4594066;19;20002;-71
2023/09/24 04:33:58;;;;;;;6.47;5.32;;;14.80;99.90;;;;;;4594502;19;20032;-72
2023/09/24 04:35:33;;;;;;;5.65;5.03;;;14.80;99.90;;;;;;4592820;19;20003;-72
2023/09/24 04:37:06;;;;;;;6.05;4.82;;;14.80;99.90;;;;;;4594315;19;20431;-72
2023/09/24 04:38:42;;;;;;;5.13;4.45;;;14.80;99.90;;;;;;4594466;19;20002;-72
2023/09/24 04:40:15;;;;;;;7.05;6.28;;;14.80;99.90;;;;;;4594345;19;20005;-72
2023/09/24 04:41:51;;;;;;;6.45;5.45;;;14.80;99.90;;;;;;4594571;19;20421;-72
2023/09/24 04:43:27;;;;;;;5.53;4.53;;;14.80;99.90;;;;;;4594271;19;20037;-72
2023/09/24 04:45:01;;;;;;;6.00;4.50;;;14.80;99.90;;;;;;4592140;19;20006;-72
2023/09/24 04:46:35;;;;;;;5.93;4.68;;;14.80;99.90;;;;;;4593813;19;20440;-72
2023/09/24 04:48:10;;;;;;;5.13;4.40;;;14.70;99.90;;;;;;4592857;19;20007;-72
2023/09/24 04:49:44;;;;;;;6.18;4.57;;;14.70;99.90;;;;;;4593821;19;20458;-72
2023/09/24 04:51:18;;;;;;;4.97;4.35;;;14.70;99.90;;;;;;4593970;19;20061;-72
2023/09/24 04:52:54;;;;;;;4.97;4.47;;;14.70;99.90;;;;;;4594312;19;20010;-72
2023/09/24 04:54:29;;;;;;;4.80;4.25;;;14.70;99.90;;;;;;4593767;19;20457;-72
2023/09/24 04:56:08;;;;;;;4.85;4.28;;;14.70;99.90;;;;;;4594158;19;20078;-72
2023/09/24 04:57:45;;;;;;;4.75;3.63;;;14.70;99.90;;;;;;4594488;19;19999;-72
2023/09/24 04:59:20;;;;;;;4.97;4.20;;;14.70;99.90;;;;;;4593933;19;20006;-72
2023/09/24 05:01:04;;;;;;;4.65;4.20;;;14.60;99.90;;;;;;4594068;19;19999;-72
2023/09/24 05:02:39;;;;;;;4.97;3.90;;;14.60;99.90;;;;;;4593882;19;20007;-72
2023/09/24 05:04:13;;;;;;;5.10;4.00;;;14.60;99.90;;;;;;4593891;19;20011;-72
2023/09/24 05:05:47;;;;;;;5.15;4.57;;;14.60;99.90;;;;;;4593747;19;19998;-72
2023/09/24 05:07:22;;;;;;;5.15;4.60;;;14.60;99.90;;;;;;4594151;19;20094;-72
2023/09/24 05:08:56;;;;;;;8.45;5.50;;;14.60;99.90;;;;;;4593787;19;20066;-72
2023/09/24 05:10:30;;;;;;;5.25;4.70;;;14.60;99.90;;;;;;4591467;19;20021;-72
2023/09/24 05:12:06;;;;;;;5.88;4.85;;;14.60;99.90;;;;;;4593724;19;20023;-72
2023/09/24 05:13:43;;;;;;;6.63;5.05;;;14.60;99.90;;;;;;4593789;19;20010;-72
2023/09/24 05:15:20;;;;;;;6.70;4.95;;;14.60;99.90;;;;;;4590707;19;20021;-72
2023/09/24 05:16:55;;;;;;;5.65;4.72;;;14.60;99.90;;;;;;4593380;19;20030;-72
2023/09/24 05:18:29;;;;;;;5.97;4.80;;;14.60;99.90;;;;;;4593734;19;20003;-72
2023/09/24 05:20:04;;;;;;;5.75;5.07;;;14.60;99.90;;;;;;4593403;19;20013;-72
2023/09/24 05:21:39;;;;;;;6.10;4.85;;;14.70;99.90;;;;;;4593505;19;20020;-72
2023/09/24 05:23:14;;;;;;;6.28;5.00;;;14.60;99.90;;;;;;4593395;19;20031;-72
2023/09/24 05:24:49;;;;;;;5.85;5.03;;;14.70;99.90;;;;;;4592724;19;20024;-72
2023/09/24 05:26:24;;;;;;;7.15;5.70;;;14.70;99.90;;;;;;4593325;19;20278;-72
2023/09/24 05:27:58;;;;;;;6.45;5.75;;;14.70;99.90;;;;;;4593361;19;20014;-72
2023/09/24 05:29:36;;;;;;;7.72;6.05;;;14.70;99.90;;;;;;4591907;19;20013;-72
2023/09/24 05:31:15;;;;;;;7.10;5.82;;;14.70;99.90;;;;;;4593335;19;20007;-72
2023/09/24 05:32:50;;;;;;;6.85;5.97;;;14.70;99.90;;;;;;4593473;19;20006;-72
2023/09/24 05:34:24;;;;;;;7.45;6.40;;;14.70;99.90;;;;;;4593119;19;20006;-72
2023/09/24 05:35:59;;;;;;;7.80;6.63;;;14.80;99.90;;;;;;4590725;19;20115;-72
2023/09/24 05:37:34;;;;;;;8.48;7.57;;;14.80;99.90;;;;;;4592694;19;20005;-72
2023/09/24 05:39:09;;;;;;;8.30;7.40;;;14.80;99.90;;;;;;4593028;19;20003;-72
2023/09/24 05:40:44;;;;;;;8.43;7.53;;;14.80;99.90;;;;;;4593103;19;20006;-72
2023/09/24 05:42:19;;;;;;;8.73;7.82;;;14.80;99.90;;;;;;4592989;19;19998;-72
2023/09/24 05:43:54;;;;;;;8.95;8.00;;;14.90;99.90;;;;;;4592298;19;20091;-72
2023/09/24 05:45:30;;;;;;;9.80;8.05;;;14.90;99.90;;;;;;4592180;19;20014;-72
2023/09/24 05:47:07;;;;;;;8.52;7.63;;;14.90;99.90;;;;;;4593492;19;20017;-70
2023/09/24 05:48:41;;;;;;;9.38;8.10;;;14.90;99.90;;;;;;4593900;19;20082;-70
2023/09/24 05:50:16;;;;;;;17.52;11.95;;;14.90;99.90;;;;;;4593664;19;20007;-70
2023/09/24 05:51:51;;;;;;;19.05;12.52;;;15.00;99.90;;;;;;4593512;19;20003;-71
2023/09/24 05:53:26;;;;;;;15.50;10.80;;;15.00;99.90;;;;;;4593726;19;20006;-71
2023/09/24 05:55:03;;;;;;;10.20;8.18;;;15.00;99.90;;;;;;4592861;19;20010;-70
2023/09/24 05:56:37;;;;;;;8.52;7.20;;;15.00;99.90;;;;;;4593395;19;20346;-71
2023/09/24 05:58:11;;;;;;;7.82;6.82;;;15.00;99.90;;;;;;4593374;19;19998;-71
2023/09/24 05:59:46;;;;;;;9.52;7.43;;;15.10;99.90;;;;;;4592392;19;20398;-71
2023/09/24 06:01:20;;;;;;;8.75;7.05;;;15.10;99.90;;;;;;4593194;19;20018;-71
2023/09/24 06:02:56;;;;;;;7.72;6.43;;;15.10;99.90;;;;;;4593236;19;20018;-71
2023/09/24 06:04:31;;;;;;;6.82;6.13;;;15.10;99.90;;;;;;4592944;19;20437;-71
2023/09/24 06:06:11;;;;;;;7.20;6.35;;;15.10;99.90;;;;;;4593497;19;19994;-71
2023/09/24 06:07:45;;;;;;;6.72;6.03;;;15.20;99.90;;;;;;4593489;19;20023;-71
2023/09/24 06:09:20;;;;;;;6.22;5.50;;;15.20;99.90;;;;;;4593443;19;20003;-71
2023/09/24 06:10:54;;;;;;;8.68;6.97;;;15.20;99.90;;;;;;4593142;19;19998;-71
2023/09/24 06:12:30;;;;;;;7.15;6.15;;;15.20;99.90;;;;;;4593311;19;20074;-70
2023/09/24 06:14:08;;;;;;;6.78;6.07;;;15.30;99.90;;;;;;4593083;19;20013;-71
2023/09/24 06:15:43;;;;;;;7.07;6.00;;;15.30;99.90;;;;;;4591446;19;20349;-71
2023/09/24 06:17:17;;;;;;;6.60;5.93;;;15.30;99.90;;;;;;4591639;19;20018;-70
2023/09/24 06:18:53;;;;;;;7.22;6.28;;;15.30;99.90;;;;;;4592648;19;20002;-70
2023/09/24 06:20:28;;;;;;;6.32;5.30;;;15.40;99.90;;;;;;4592959;19;20010;-69
2023/09/24 06:22:02;;;;;;;5.85;4.75;;;15.60;99.90;;;;;;4592401;19;20002;-72
2023/09/24 06:23:37;;;;;;;6.68;4.50;;;16.00;99.90;;;;;;4592895;19;20015;-71
2023/09/24 06:25:10;;;;;;;7.53;4.10;;;16.40;99.90;;;;;;4592034;19;20003;-73
2023/09/24 06:26:45;;;;;;;7.05;5.30;;;16.80;99.90;;;;;;4592767;19;20009;-70
2023/09/24 06:28:21;;;;;;;5.85;3.97;;;17.20;99.90;;;;;;4593080;19;20387;-71
2023/09/24 06:29:56;;;;;;;5.80;4.55;;;17.50;99.90;;;;;;4592750;19;20037;-71
2023/09/24 06:31:31;;;;;;;5.80;4.13;;;17.70;99.90;;;;;;4591400;19;20002;-72
2023/09/24 06:33:07;;;;;;;6.07;3.95;;;18.00;99.90;;;;;;4592427;19;20007;-71
2023/09/24 06:34:41;;;;;;;6.32;4.20;;;18.20;99.90;;;;;;4592164;19;20003;-70
2023/09/24 06:36:17;;;;;;;6.32;4.30;;;18.40;99.90;;;;;;4592953;19;19994;-71
2023/09/24 06:37:53;;;;;;;6.20;4.07;;;18.50;99.90;;;;;;4592941;19;20013;-70
2023/09/24 06:39:29;;;;;;;5.00;3.90;;;18.70;99.90;;;;;;4592876;19;20022;-72
2023/09/24 06:41:04;;;;;;;5.30;4.28;;;18.80;99.90;;;;;;4593265;19;20002;-71
2023/09/24 06:42:39;;;;;;;6.13;3.70;;;18.90;99.90;;;;;;4591219;19;20024;-70
2023/09/24 06:44:14;;;;;;;4.13;3.50;;;19.00;99.90;;;;;;4592001;19;20069;-71
2023/09/24 06:45:48;;;;;;;4.72;3.58;;;19.10;99.90;;;;;;4592825;19;20010;-71
2023/09/24 06:47:24;;;;;;;4.95;3.30;;;19.20;99.90;;;;;;4592603;19;20007;-71
2023/09/24 06:49:00;;;;;;;6.00;3.85;;;19.20;99.90;;;;;;4592392;19;20002;-71
2023/09/24 06:50:34;;;;;;;3.65;3.00;;;19.30;99.90;;;;;;4592456;19;20010;-71
2023/09/24 06:52:09;;;;;;;4.20;3.10;;;19.30;99.90;;;;;;4592426;19;20006;-71
2023/09/24 06:53:44;;;;;;;3.33;3.00;;;19.40;99.90;;;;;;4592368;19;20007;-71
2023/09/24 06:55:18;;;;;;;4.47;2.95;;;19.50;99.90;;;;;;4591601;19;20319;-71
2023/09/24 06:56:53;;;;;;;4.40;3.45;;;19.50;99.90;;;;;;4592318;19;20349;-71
2023/09/24 06:58:27;;;;;;;4.57;3.10;;;19.60;99.90;;;;;;4592275;19;20489;-71
2023/09/24 07:00:01;;;;;;;3.80;2.95;;;19.60;99.90;;;;;;4592329;19;20096;-71
2023/09/24 07:01:38;;;;;;;5.30;2.97;;;19.60;99.90;;;;;;4592493;19;20037;-71
2023/09/24 07:03:12;;;;;;;4.15;2.95;;;19.70;99.90;;;;;;4592172;19;19998;-71
2023/09/24 07:04:46;;;;;;;4.00;2.83;;;19.70;99.90;;;;;;4591862;19;20006;-71
2023/09/24 07:06:22;;;;;;;3.97;2.90;;;19.70;99.90;;;;;;4592420;19;20437;-71
2023/09/24 07:07:57;;;;;;;4.50;3.08;;;19.80;99.90;;;;;;4590751;19;20010;-71
2023/09/24 07:09:32;;;;;;;3.50;2.70;;;19.80;99.90;;;;;;4591696;19;20322;-71
2023/09/24 07:11:31;;;;;;;4.25;3.20;;;19.80;99.90;;;;;;4592055;19;20007;-70
2023/09/24 07:13:05;;;;;;;5.75;3.60;;;19.80;99.90;;;;;;4592323;19;20066;-71
2023/09/24 07:14:39;;;;;;;4.72;2.85;;;19.90;99.90;;;;;;4591435;19;19998;-71
2023/09/24 07:16:15;;;;;;;4.10;3.17;;;19.90;99.90;;;;;;4590720;19;20015;-71
2023/09/24 07:17:48;;;;;;;3.67;2.38;;;19.90;99.90;;;;;;4591846;19;20429;-71
2023/09/24 07:19:22;;;;;;;3.78;2.60;;;19.90;99.90;;;;;;4591787;19;20015;-71
2023/09/24 07:20:57;;;;;;;4.63;2.40;;;19.90;99.90;;;;;;4592419;19;20011;-71
2023/09/24 07:22:32;;;;;;;3.58;2.53;;;20.00;99.90;;;;;;4590746;19;20009;-71
2023/09/24 07:24:06;;;;;;;4.10;2.85;;;20.00;99.90;;;;;;4591536;19;19999;-70
2023/09/24 07:25:42;;;;;;;4.32;2.80;;;20.00;99.90;;;;;;4590676;19;20010;-73
2023/09/24 07:27:17;;;;;;;4.50;2.45;;;20.00;99.90;;;;;;4591648;19;20006;-71
2023/09/24 07:28:51;;;;;;;4.38;2.72;;;20.00;99.90;;;;;;4591912;19;19999;-71
2023/09/24 07:30:26;;;;;;;3.65;2.58;;;20.10;99.90;;;;;;4590655;19;20010;-71
2023/09/24 07:32:00;;;;;;;4.45;2.42;;;20.10;99.90;;;;;;4591337;19;20074;-71
2023/09/24 07:33:34;;;;;;;3.70;2.70;;;20.10;99.90;;;;;;4593692;19;20011;-71
2023/09/24 07:35:10;;;;;;;3.13;2.15;;;20.10;99.90;;;;;;4595200;19;20032;-71
2023/09/24 07:36:45;;;;;;;3.70;2.35;;;20.10;99.90;;;;;;4596241;19;20019;-71
2023/09/24 07:38:20;;;;;;;4.63;2.38;;;20.20;99.90;;;;;;4596533;19;20333;-72
2023/09/24 07:39:55;;;;;;;3.05;2.28;;;20.20;99.90;;;;;;4596268;19;20002;-71
2023/09/24 07:41:29;;;;;;;2.85;2.13;;;20.20;99.90;;;;;;4596137;19;20002;-72
2023/09/24 07:43:05;;;;;;;3.05;2.20;;;20.20;99.90;;;;;;4594589;19;20007;-68
2023/09/24 07:45:34;;;;;;;4.40;2.88;;;20.20;99.90;;;;;;4590779;19;20026;-71
2023/09/24 07:47:09;;;;;;;3.60;2.17;;;20.30;99.90;;;;;;4596015;19;19998;-72
2023/09/24 07:48:49;;;;;;;3.88;2.53;;;20.30;99.90;;;;;;4595841;19;20003;-70
2023/09/24 07:50:22;;;;;;;3.90;2.35;;;20.30;99.90;;;;;;4595033;19;20010;-75
2023/09/24 07:51:56;;;;;;;3.35;2.70;;;20.30;99.90;;;;;;4594799;19;20002;-71
2023/09/24 07:53:31;;;;;;;3.75;2.65;;;20.30;99.90;;;;;;4595603;19;20006;-70
2023/09/24 07:55:06;;;;;;;4.15;2.50;;;20.30;99.90;;;;;;4593320;19;20010;-72
2023/09/24 07:56:42;;;;;;;3.25;2.28;;;20.40;99.90;;;;;;4595588;19;20004;-71
2023/09/24 07:58:18;;;;;;;3.60;2.50;;;20.40;99.90;;;;;;4596139;19;20006;-71
2023/09/24 07:59:52;;;;;;;3.20;2.28;;;20.40;99.90;;;;;;4595779;19;20021;-71
2023/09/24 08:01:26;;;;;;;4.20;2.55;;;20.40;99.90;;;;;;4595856;19;20003;-71
2023/09/24 08:03:02;;;;;;;3.25;2.40;;;20.40;99.90;;;;;;4595840;19;20041;-71
2023/09/24 08:04:38;;;;;;;3.60;2.47;;;20.50;99.90;;;;;;4593721;19;20368;-70
2023/09/24 08:06:12;;;;;;;2.63;2.10;;;20.50;99.90;;;;;;4595240;19;20003;-71
2023/09/24 08:07:47;;;;;;;3.85;2.50;;;20.50;99.90;;;;;;4596008;19;20010;-72
2023/09/24 08:09:23;;;;;;;2.95;2.50;;;20.50;99.90;;;;;;4595624;19;20298;-71
2023/09/24 08:10:57;;;;;;;3.97;2.80;;;20.50;99.90;;;;;;4595568;19;20002;-71
2023/09/24 08:12:34;;;;;;;5.15;2.67;;;20.60;99.90;;;;;;4595888;19;20312;-71
2023/09/24 08:14:08;;;;;;;3.45;2.67;;;20.60;99.90;;;;;;4595764;19;20006;-71
2023/09/24 08:15:42;;;;;;;3.55;2.22;;;20.60;99.90;;;;;;4594189;19;20028;-70
2023/09/24 08:17:18;;;;;;;3.25;2.22;;;20.60;99.90;;;;;;4595392;19;20007;-70
2023/09/24 08:18:53;;;;;;;3.13;2.30;;;20.60;99.90;;;;;;4595260;19;20006;-72
2023/09/24 08:20:27;;;;;;;4.47;2.90;;;20.60;99.90;;;;;;4595261;19;20429;-72
2023/09/24 08:22:02;;;;;;;3.25;2.42;;;20.60;99.90;;;;;;4595364;19;20019;-71
2023/09/24 08:23:36;;;;;;;4.10;2.42;;;20.60;99.90;;;;;;4595416;19;20214;-70
2023/09/24 08:25:10;;;;;;;4.25;2.75;;;20.60;99.90;;;;;;4594217;19;20045;-71
2023/09/24 08:26:46;;;;;;;4.32;2.40;;;20.70;99.90;;;;;;4595128;19;20094;-72
2023/09/24 08:28:20;;;;;;;3.70;2.85;;;20.60;99.90;;;;;;4595025;19;20010;-70
2023/09/24 08:29:55;;;;;;;3.85;2.97;;;20.70;99.90;;;;;;4593752;19;20095;-71